sensor_id;sensor_type;location;lat;lon;timestamp;pressure;altitude;pressure_sealevel;temperature;humidity
71643;BME280;59438;45.014;39.006;2023-03-30T00:01:24;101269.38;;;2.24;77.44
71643;BME280;59438;45.014;39.006;2023-03-30T00:03:50;101301.44;;;2.35;77.26
71643;BME280;59438;45.014;39.006;2023-03-30T00:06:18;101285.84;;;2.29;77.27
71643;BME280;59438;45.014;39.006;2023-03-30T00:08:44;101299.69;;;2.33;77.49
71643;BME280;59438;45.014;39.006;2023-03-30T00:11:12;101297.94;;;2.29;78.25
71643;BME280;59438;45.014;39.006;2023-03-30T00:13:40;101299.66;;;2.27;78.14
71643;BME280;59438;45.014;39.006;2023-03-30T00:16:08;101264.06;;;2.04;77.59
71643;BME280;59438;45.014;39.006;2023-03-30T00:18:34;101300.47;;;2.24;77.66
71643;BME280;59438;45.014;39.006;2023-03-30T00:21:01;101286.63;;;2.17;77.43
71643;BME280;59438;45.014;39.006;2023-03-30T00:23:29;101309.13;;;2.23;77.80
71643;BME280;59438;45.014;39.006;2023-03-30T00:25:56;101315.16;;;2.24;77.83
71643;BME280;59438;45.014;39.006;2023-03-30T00:28:22;101319.50;;;2.25;78.24
71643;BME280;59438;45.014;39.006;2023-03-30T00:30:49;101307.38;;;2.22;77.89
71643;BME280;59438;45.014;39.006;2023-03-30T00:33:16;101310.84;;;2.24;77.94
71643;BME280;59438;45.014;39.006;2023-03-30T00:35:42;101319.50;;;2.25;78.17
71643;BME280;59438;45.014;39.006;2023-03-30T00:38:16;101320.38;;;2.25;77.87
71643;BME280;59438;45.014;39.006;2023-03-30T00:40:50;101328.97;;;2.19;78.11
71643;BME280;59438;45.014;39.006;2023-03-30T00:43:16;101338.53;;;2.25;78.15
71643;BME280;59438;45.014;39.006;2023-03-30T00:45:43;101335.91;;;2.24;78.09
71643;BME280;59438;45.014;39.006;2023-03-30T00:48:11;101330.69;;;2.19;78.22
71643;BME280;59438;45.014;39.006;2023-03-30T00:50:45;101332.47;;;2.23;78.19
71643;BME280;59438;45.014;39.006;2023-03-30T00:53:14;101339.38;;;2.26;78.07
71643;BME280;59438;45.014;39.006;2023-03-30T00:55:44;101352.34;;;2.26;78.30
71643;BME280;59438;45.014;39.006;2023-03-30T00:58:12;101348.03;;;2.25;77.65
71643;BME280;59438;45.014;39.006;2023-03-30T01:00:40;101343.69;;;2.24;78.39
71643;BME280;59438;45.014;39.006;2023-03-30T01:03:12;101324.56;;;2.09;77.98
71643;BME280;59438;45.014;39.006;2023-03-30T01:05:41;101344.53;;;2.19;78.36
71643;BME280;59438;45.014;39.006;2023-03-30T01:08:10;101351.44;;;2.19;78.52
71643;BME280;59438;45.014;39.006;2023-03-30T01:10:37;101347.09;;;2.18;78.55
71643;BME280;59438;45.014;39.006;2023-03-30T01:13:05;101344.50;;;2.18;78.55
71643;BME280;59438;45.014;39.006;2023-03-30T01:15:34;101343.66;;;2.19;78.70
71643;BME280;59438;45.014;39.006;2023-03-30T01:18:16;101344.53;;;2.21;78.87
71643;BME280;59438;45.014;39.006;2023-03-30T01:21:08;101339.38;;;2.22;79.27
71643;BME280;59438;45.014;39.006;2023-03-30T01:24:14;101325.53;;;2.24;79.27
71643;BME280;59438;45.014;39.006;2023-03-30T01:26:49;101335.94;;;2.27;78.66
71643;BME280;59438;45.014;39.006;2023-03-30T01:29:28;101320.41;;;2.27;78.37
71643;BME280;59438;45.014;39.006;2023-03-30T01:32:22;101317.78;;;2.25;79.21
71643;BME280;59438;45.014;39.006;2023-03-30T01:40:45;101337.72;;;2.34;78.74
71643;BME280;59438;45.014;39.006;2023-03-30T01:43:17;101334.25;;;2.33;78.30
71643;BME280;59438;45.014;39.006;2023-03-30T01:45:46;101311.69;;;2.17;79.03
71643;BME280;59438;45.014;39.006;2023-03-30T01:48:19;101333.34;;;2.30;78.77
71643;BME280;59438;45.014;39.006;2023-03-30T01:50:51;101333.34;;;2.30;78.91
71643;BME280;59438;45.014;39.006;2023-03-30T01:53:24;101339.41;;;2.27;79.23
71643;BME280;59438;45.014;39.006;2023-03-30T01:55:58;101332.47;;;2.26;78.67
71643;BME280;59438;45.014;39.006;2023-03-30T01:58:29;101354.97;;;2.32;79.14
71643;BME280;59438;45.014;39.006;2023-03-30T02:01:00;101335.06;;;2.25;78.77
71643;BME280;59438;45.014;39.006;2023-03-30T02:03:29;101337.66;;;2.28;78.66
71643;BME280;59438;45.014;39.006;2023-03-30T02:05:58;101342.88;;;2.31;79.01
71643;BME280;59438;45.014;39.006;2023-03-30T02:08:29;101351.53;;;2.33;78.62
71643;BME280;59438;45.014;39.006;2023-03-30T02:10:58;101355.00;;;2.33;78.99
71643;BME280;59438;45.014;39.006;2023-03-30T02:13:26;101358.44;;;2.34;78.68
71643;BME280;59438;45.014;39.006;2023-03-30T02:15:55;101342.81;;;2.23;78.53
71643;BME280;59438;45.014;39.006;2023-03-30T02:18:23;101366.22;;;2.34;78.19
71643;BME280;59438;45.014;39.006;2023-03-30T02:20:49;101361.91;;;2.34;78.60
71643;BME280;59438;45.014;39.006;2023-03-30T02:23:17;101362.78;;;2.35;78.48
71643;BME280;59438;45.014;39.006;2023-03-30T02:25:45;101376.63;;;2.37;78.51
71643;BME280;59438;45.014;39.006;2023-03-30T02:28:12;101370.59;;;2.39;78.68
71643;BME280;59438;45.014;39.006;2023-03-30T02:30:41;101374.06;;;2.41;78.37
71643;BME280;59438;45.014;39.006;2023-03-30T02:33:15;101379.25;;;2.45;78.71
71643;BME280;59438;45.014;39.006;2023-03-30T02:35:54;101385.34;;;2.48;78.07
71643;BME280;59438;45.014;39.006;2023-03-30T02:38:40;101392.28;;;2.52;78.63
71643;BME280;59438;45.014;39.006;2023-03-30T02:41:18;101387.09;;;2.49;78.07
71643;BME280;59438;45.014;39.006;2023-03-30T02:43:54;101394.06;;;2.56;77.81
71643;BME280;59438;45.014;39.006;2023-03-30T02:46:52;101393.19;;;2.59;77.91
71643;BME280;59438;45.014;39.006;2023-03-30T02:49:32;101397.53;;;2.60;77.66
71643;BME280;59438;45.014;39.006;2023-03-30T02:52:08;101396.69;;;2.59;77.65
71643;BME280;59438;45.014;39.006;2023-03-30T02:54:43;101400.13;;;2.63;77.79
71643;BME280;59438;45.014;39.006;2023-03-30T02:57:16;101401.88;;;2.64;77.12
71643;BME280;59438;45.014;39.006;2023-03-30T02:59:53;101398.44;;;2.65;77.48
71643;BME280;59438;45.014;39.006;2023-03-30T03:02:23;101382.81;;;2.59;77.04
71643;BME280;59438;45.014;39.006;2023-03-30T03:04:53;101375.88;;;2.53;77.18
71643;BME280;59438;45.014;39.006;2023-03-30T03:07:20;101388.03;;;2.63;76.90
71643;BME280;59438;45.014;39.006;2023-03-30T03:09:47;101397.59;;;2.71;77.01
71643;BME280;59438;45.014;39.006;2023-03-30T03:12:13;101401.94;;;2.73;76.93
71643;BME280;59438;45.014;39.006;2023-03-30T03:14:40;101408.88;;;2.74;76.66
71643;BME280;59438;45.014;39.006;2023-03-30T03:17:07;101401.94;;;2.73;76.78
71643;BME280;59438;45.014;39.006;2023-03-30T03:19:34;101406.25;;;2.73;76.66
71643;BME280;59438;45.014;39.006;2023-03-30T03:22:00;101416.66;;;2.76;76.36
71643;BME280;59438;45.014;39.006;2023-03-30T03:24:27;101421.84;;;2.74;76.40
71643;BME280;59438;45.014;39.006;2023-03-30T03:26:53;101411.47;;;2.74;76.29
71643;BME280;59438;45.014;39.006;2023-03-30T03:29:20;101391.50;;;2.62;76.13
71643;BME280;59438;45.014;39.006;2023-03-30T03:31:46;101419.25;;;2.77;76.13
71643;BME280;59438;45.014;39.006;2023-03-30T03:34:14;101432.25;;;2.79;76.02
71643;BME280;59438;45.014;39.006;2023-03-30T03:36:40;101424.47;;;2.80;75.73
71643;BME280;59438;45.014;39.006;2023-03-30T03:39:06;101421.88;;;2.82;75.90
71643;BME280;59438;45.014;39.006;2023-03-30T03:41:33;101421.00;;;2.81;75.51
71643;BME280;59438;45.014;39.006;2023-03-30T03:43:59;101418.44;;;2.83;75.36
71643;BME280;59438;45.014;39.006;2023-03-30T03:46:25;101413.22;;;2.81;75.42
71643;BME280;59438;45.014;39.006;2023-03-30T03:48:52;101420.16;;;2.84;75.18
71643;BME280;59438;45.014;39.006;2023-03-30T03:51:20;101417.56;;;2.84;74.94
71643;BME280;59438;45.014;39.006;2023-03-30T03:53:46;101422.75;;;2.84;75.23
71643;BME280;59438;45.014;39.006;2023-03-30T03:56:12;101418.47;;;2.85;74.65
71643;BME280;59438;45.014;39.006;2023-03-30T03:58:39;101416.72;;;2.85;74.53
71643;BME280;59438;45.014;39.006;2023-03-30T04:01:05;101424.50;;;2.88;75.09
71643;BME280;59438;45.014;39.006;2023-03-30T04:03:31;101428.00;;;2.89;74.85
71643;BME280;59438;45.014;39.006;2023-03-30T04:05:58;101420.19;;;2.90;74.58
71643;BME280;59438;45.014;39.006;2023-03-30T04:08:26;101421.09;;;2.95;74.43
71643;BME280;59438;45.014;39.006;2023-03-30T04:11:02;101418.50;;;2.98;74.38
71643;BME280;59438;45.014;39.006;2023-03-30T04:13:28;101409.88;;;2.95;74.49
71643;BME280;59438;45.014;39.006;2023-03-30T04:15:55;101429.81;;;3.03;74.37
71643;BME280;59438;45.014;39.006;2023-03-30T04:18:21;101430.69;;;3.06;74.04
71643;BME280;59438;45.014;39.006;2023-03-30T04:20:47;101428.09;;;3.09;74.16
71643;BME280;59438;45.014;39.006;2023-03-30T04:23:14;101422.91;;;3.10;73.98
71643;BME280;59438;45.014;39.006;2023-03-30T04:25:41;101421.19;;;3.12;73.55
71643;BME280;59438;45.014;39.006;2023-03-30T04:28:08;101420.34;;;3.13;73.61
71643;BME280;59438;45.014;39.006;2023-03-30T04:30:34;101430.75;;;3.18;73.62
71643;BME280;59438;45.014;39.006;2023-03-30T04:33:00;101429.03;;;3.20;73.08
71643;BME280;59438;45.014;39.006;2023-03-30T04:35:28;101422.97;;;3.21;72.65
71643;BME280;59438;45.014;39.006;2023-03-30T04:37:55;101437.69;;;3.25;72.75
71643;BME280;59438;45.014;39.006;2023-03-30T04:40:21;101439.44;;;3.29;72.76
71643;BME280;59438;45.014;39.006;2023-03-30T04:42:49;101444.66;;;3.32;72.60
71643;BME280;59438;45.014;39.006;2023-03-30T04:45:16;101436.88;;;3.28;72.98
71643;BME280;59438;45.014;39.006;2023-03-30T04:47:42;101437.75;;;3.34;72.42
71643;BME280;59438;45.014;39.006;2023-03-30T04:50:09;101453.38;;;3.40;71.99
71643;BME280;59438;45.014;39.006;2023-03-30T04:52:35;101446.44;;;3.42;72.04
71643;BME280;59438;45.014;39.006;2023-03-30T04:55:02;101449.06;;;3.47;72.14
71643;BME280;59438;45.014;39.006;2023-03-30T04:57:29;101450.84;;;3.54;72.08
71643;BME280;59438;45.014;39.006;2023-03-30T04:59:57;101446.50;;;3.59;71.84
71643;BME280;59438;45.014;39.006;2023-03-30T05:02:23;101450.00;;;3.65;72.04
71643;BME280;59438;45.014;39.006;2023-03-30T05:04:50;101457.81;;;3.69;71.83
71643;BME280;59438;45.014;39.006;2023-03-30T05:07:16;101454.38;;;3.75;71.92
71643;BME280;59438;45.014;39.006;2023-03-30T05:09:42;101461.28;;;3.80;71.82
71643;BME280;59438;45.014;39.006;2023-03-30T05:12:09;101456.13;;;3.85;71.24
71643;BME280;59438;45.014;39.006;2023-03-30T05:14:35;101448.31;;;3.88;71.29
71643;BME280;59438;45.014;39.006;2023-03-30T05:17:03;101450.06;;;3.91;70.27
71643;BME280;59438;45.014;39.006;2023-03-30T05:19:29;101457.00;;;3.93;70.43
71643;BME280;59438;45.014;39.006;2023-03-30T05:21:55;101461.34;;;3.94;70.36
71643;BME280;59438;45.014;39.006;2023-03-30T05:24:22;101464.81;;;3.96;70.72
71643;BME280;59438;45.014;39.006;2023-03-30T05:26:48;101455.28;;;4.03;70.30
71643;BME280;59438;45.014;39.006;2023-03-30T05:29:14;101442.28;;;3.94;70.05
71643;BME280;59438;45.014;39.006;2023-03-30T05:31:41;101452.69;;;4.11;69.89
71643;BME280;59438;45.014;39.006;2023-03-30T05:34:09;101460.50;;;4.15;69.70
71643;BME280;59438;45.014;39.006;2023-03-30T05:36:35;101463.97;;;4.23;69.84
71643;BME280;59438;45.014;39.006;2023-03-30T05:39:01;101472.66;;;4.26;69.74
71643;BME280;59438;45.014;39.006;2023-03-30T05:41:28;101470.94;;;4.31;69.21
71643;BME280;59438;45.014;39.006;2023-03-30T05:43:54;101476.13;;;4.29;69.01
71643;BME280;59438;45.014;39.006;2023-03-30T05:46:20;101478.72;;;4.29;68.40
71643;BME280;59438;45.014;39.006;2023-03-30T05:48:46;101488.28;;;4.29;68.64
71643;BME280;59438;45.014;39.006;2023-03-30T05:51:14;101486.53;;;4.31;68.94
71643;BME280;59438;45.014;39.006;2023-03-30T05:53:41;101499.56;;;4.31;68.56
71643;BME280;59438;45.014;39.006;2023-03-30T05:56:08;101504.75;;;4.29;68.48
71643;BME280;59438;45.014;39.006;2023-03-30T05:58:34;101505.59;;;4.30;68.34
71643;BME280;59438;45.014;39.006;2023-03-30T06:01:00;101513.41;;;4.31;68.06
71643;BME280;59438;45.014;39.006;2023-03-30T06:03:27;101509.06;;;4.32;68.02
71643;BME280;59438;45.014;39.006;2023-03-30T06:05:53;101511.66;;;4.32;67.18
71643;BME280;59438;45.014;39.006;2023-03-30T06:08:21;101507.34;;;4.31;66.78
71643;BME280;59438;45.014;39.006;2023-03-30T06:10:51;101508.19;;;4.34;65.55
71643;BME280;59438;45.014;39.006;2023-03-30T06:13:17;101510.84;;;4.39;67.03
71643;BME280;59438;45.014;39.006;2023-03-30T06:15:44;101504.75;;;4.37;66.56
71643;BME280;59438;45.014;39.006;2023-03-30T06:18:10;101514.31;;;4.53;67.11
71643;BME280;59438;45.014;39.006;2023-03-30T06:20:36;101512.59;;;4.61;66.69
71643;BME280;59438;45.014;39.006;2023-03-30T06:23:03;101512.56;;;4.69;66.84
71643;BME280;59438;45.014;39.006;2023-03-30T06:25:31;101522.13;;;4.78;65.61
71643;BME280;59438;45.014;39.006;2023-03-30T06:27:57;101520.41;;;4.84;65.30
71643;BME280;59438;45.014;39.006;2023-03-30T06:30:23;101490.03;;;4.76;65.65
71643;BME280;59438;45.014;39.006;2023-03-30T06:32:50;101517.78;;;4.95;65.52
71643;BME280;59438;45.014;39.006;2023-03-30T06:35:16;101524.69;;;5.04;64.96
71643;BME280;59438;45.014;39.006;2023-03-30T06:37:42;101522.97;;;5.12;64.98
71643;BME280;59438;45.014;39.006;2023-03-30T06:40:09;101531.66;;;5.19;64.40
71643;BME280;59438;45.014;39.006;2023-03-30T06:42:37;101531.63;;;5.22;62.39
71643;BME280;59438;45.014;39.006;2023-03-30T06:45:05;101516.00;;;5.22;63.59
71643;BME280;59438;45.014;39.006;2023-03-30T06:47:32;101522.09;;;5.25;62.98
71643;BME280;59438;45.014;39.006;2023-03-30T06:49:58;101522.94;;;5.32;63.08
71643;BME280;59438;45.014;39.006;2023-03-30T06:52:24;101531.63;;;5.30;62.12
71643;BME280;59438;45.014;39.006;2023-03-30T06:54:50;101532.50;;;5.32;62.68
71643;BME280;59438;45.014;39.006;2023-03-30T06:57:17;101536.78;;;5.37;62.33
71643;BME280;59438;45.014;39.006;2023-03-30T06:59:44;101530.69;;;5.48;61.52
71643;BME280;59438;45.014;39.006;2023-03-30T07:02:13;101534.16;;;5.60;60.68
71643;BME280;59438;45.014;39.006;2023-03-30T07:04:39;101532.34;;;5.70;61.63
71643;BME280;59438;45.014;39.006;2023-03-30T07:07:05;101528.88;;;5.74;61.19
71643;BME280;59438;45.014;39.006;2023-03-30T07:09:32;101532.34;;;5.76;61.74
71643;BME280;59438;45.014;39.006;2023-03-30T07:11:58;101538.44;;;5.72;61.08
71643;BME280;59438;45.014;39.006;2023-03-30T07:14:25;101533.25;;;5.61;60.66
71643;BME280;59438;45.014;39.006;2023-03-30T07:16:52;101529.84;;;5.50;59.55
71643;BME280;59438;45.014;39.006;2023-03-30T07:19:19;101530.72;;;5.46;60.56
71643;BME280;59438;45.014;39.006;2023-03-30T07:21:45;101535.06;;;5.39;60.86
71643;BME280;59438;45.014;39.006;2023-03-30T07:24:11;101531.59;;;5.40;60.58
71643;BME280;59438;45.014;39.006;2023-03-30T07:26:38;101534.19;;;5.47;61.40
71643;BME280;59438;45.014;39.006;2023-03-30T07:29:04;101546.31;;;5.58;61.33
71643;BME280;59438;45.014;39.006;2023-03-30T07:31:31;101540.19;;;5.75;61.30
71643;BME280;59438;45.014;39.006;2023-03-30T07:33:58;101541.81;;;5.93;59.95
71643;BME280;59438;45.014;39.006;2023-03-30T07:36:25;101525.31;;;5.97;60.81
71643;BME280;59438;45.014;39.006;2023-03-30T07:38:51;101524.38;;;6.18;60.50
71643;BME280;59438;45.014;39.006;2023-03-30T07:41:17;101537.31;;;6.32;59.11
71643;BME280;59438;45.014;39.006;2023-03-30T07:43:44;101537.28;;;6.38;59.28
71643;BME280;59438;45.014;39.006;2023-03-30T07:46:10;101535.53;;;6.40;59.41
71643;BME280;59438;45.014;39.006;2023-03-30T07:48:38;101543.31;;;6.46;59.38
71643;BME280;59438;45.014;39.006;2023-03-30T07:51:07;101545.97;;;6.41;56.68
71643;BME280;59438;45.014;39.006;2023-03-30T07:53:34;101536.41;;;6.40;58.09
71643;BME280;59438;45.014;39.006;2023-03-30T07:56:01;101531.19;;;6.36;57.83
71643;BME280;59438;45.014;39.006;2023-03-30T07:58:27;101527.72;;;6.34;57.66
71643;BME280;59438;45.014;39.006;2023-03-30T08:00:54;101515.59;;;6.31;58.11
71643;BME280;59438;45.014;39.006;2023-03-30T08:03:21;101553.72;;;6.52;57.79
71643;BME280;59438;45.014;39.006;2023-03-30T08:05:52;101544.13;;;6.57;55.11
71643;BME280;59438;45.014;39.006;2023-03-30T08:08:19;101531.94;;;6.58;56.26
71643;BME280;59438;45.014;39.006;2023-03-30T08:10:46;101541.50;;;6.57;57.03
71643;BME280;59438;45.014;39.006;2023-03-30T08:13:12;101555.41;;;6.56;56.20
71643;BME280;59438;45.014;39.006;2023-03-30T08:15:38;101520.63;;;6.56;57.24
71643;BME280;59438;45.014;39.006;2023-03-30T08:18:05;101529.22;;;6.70;56.90
71643;BME280;59438;45.014;39.006;2023-03-30T08:20:32;101519.69;;;6.63;56.12
71643;BME280;59438;45.014;39.006;2023-03-30T08:22:58;101536.09;;;6.82;55.81
71643;BME280;59438;45.014;39.006;2023-03-30T08:25:26;101528.22;;;6.83;54.52
71643;BME280;59438;45.014;39.006;2023-03-30T08:27:53;101531.56;;;7.01;56.17
71643;BME280;59438;45.014;39.006;2023-03-30T08:30:19;101537.53;;;7.15;56.63
71643;BME280;59438;45.014;39.006;2023-03-30T08:32:45;101531.31;;;7.29;54.51
71643;BME280;59438;45.014;39.006;2023-03-30T08:35:12;101528.59;;;7.38;54.47
71643;BME280;59438;45.014;39.006;2023-03-30T08:37:38;101535.53;;;7.42;54.30
71643;BME280;59438;45.014;39.006;2023-03-30T08:40:06;101529.47;;;7.40;53.29
71643;BME280;59438;45.014;39.006;2023-03-30T08:42:51;101526.84;;;7.38;50.57
71643;BME280;59438;45.014;39.006;2023-03-30T08:45:19;101517.31;;;7.36;53.75
71643;BME280;59438;45.014;39.006;2023-03-30T08:47:48;101538.16;;;7.39;51.94
71643;BME280;59438;45.014;39.006;2023-03-30T08:50:17;101534.63;;;7.43;53.05
71643;BME280;59438;45.014;39.006;2023-03-30T08:52:51;101525.03;;;7.46;52.65
71643;BME280;59438;45.014;39.006;2023-03-30T08:55:22;101497.38;;;7.27;50.58
71643;BME280;59438;45.014;39.006;2023-03-30T08:57:54;101525.94;;;7.42;50.41
71643;BME280;59438;45.014;39.006;2023-03-30T09:00:32;101506.84;;;7.34;48.66
71643;BME280;59438;45.014;39.006;2023-03-30T09:03:06;101516.19;;;7.55;51.54
71643;BME280;59438;45.014;39.006;2023-03-30T09:05:42;101524.00;;;7.60;50.64
71643;BME280;59438;45.014;39.006;2023-03-30T09:08:16;101497.88;;;7.57;50.43
71643;BME280;59438;45.014;39.006;2023-03-30T09:10:46;101522.25;;;7.62;50.68
71643;BME280;59438;45.014;39.006;2023-03-30T09:13:17;101513.50;;;7.61;49.23
71643;BME280;59438;45.014;39.006;2023-03-30T09:15:50;101509.13;;;7.65;49.54
71643;BME280;59438;45.014;39.006;2023-03-30T09:18:21;101510.78;;;7.72;51.23
71643;BME280;59438;45.014;39.006;2023-03-30T09:20:51;101495.88;;;7.79;50.27
71643;BME280;59438;45.014;39.006;2023-03-30T09:23:18;101512.22;;;7.95;49.41
71643;BME280;59438;45.014;39.006;2023-03-30T09:25:49;101498.44;;;7.82;49.48
71643;BME280;59438;45.014;39.006;2023-03-30T09:28:26;101507.97;;;7.87;49.54
71643;BME280;59438;45.014;39.006;2023-03-30T09:31:00;101513.16;;;7.91;49.80
71643;BME280;59438;45.014;39.006;2023-03-30T09:33:32;101507.88;;;7.95;49.51
71643;BME280;59438;45.014;39.006;2023-03-30T09:36:09;101491.09;;;8.08;49.37
71643;BME280;59438;45.014;39.006;2023-03-30T09:38:36;101491.88;;;8.17;52.19
71643;BME280;59438;45.014;39.006;2023-03-30T09:41:15;101495.91;;;8.38;47.99
71643;BME280;59438;45.014;39.006;2023-03-30T09:43:45;101503.59;;;8.52;47.01
71643;BME280;59438;45.014;39.006;2023-03-30T09:46:12;101498.50;;;8.42;50.21
71643;BME280;59438;45.014;39.006;2023-03-30T09:48:40;101510.00;;;8.31;50.50
71643;BME280;59438;45.014;39.006;2023-03-30T09:51:18;101486.69;;;8.14;47.31
71643;BME280;59438;45.014;39.006;2023-03-30T09:53:47;101498.00;;;8.14;49.93
71643;BME280;59438;45.014;39.006;2023-03-30T09:56:19;101509.41;;;8.12;48.30
71643;BME280;59438;45.014;39.006;2023-03-30T09:58:47;101501.66;;;8.04;49.85
71643;BME280;59438;45.014;39.006;2023-03-30T10:01:15;101498.19;;;8.02;50.58
71643;BME280;59438;45.014;39.006;2023-03-30T10:03:43;101500.66;;;8.11;51.21
71643;BME280;59438;45.014;39.006;2023-03-30T10:06:12;101492.63;;;8.23;50.31
71643;BME280;59438;45.014;39.006;2023-03-30T10:08:41;101460.38;;;8.23;50.44
71643;BME280;59438;45.014;39.006;2023-03-30T10:11:09;101472.34;;;8.42;50.60
71643;BME280;59438;45.014;39.006;2023-03-30T10:13:36;101480.09;;;8.47;48.99
71643;BME280;59438;45.014;39.006;2023-03-30T10:16:07;101454.00;;;8.42;47.21
71643;BME280;59438;45.014;39.006;2023-03-30T10:18:38;101476.34;;;8.63;49.64
71643;BME280;59438;45.014;39.006;2023-03-30T10:21:14;101482.31;;;8.72;48.67
71643;BME280;59438;45.014;39.006;2023-03-30T10:23:44;101473.63;;;8.70;48.08
71643;BME280;59438;45.014;39.006;2023-03-30T10:26:13;101466.06;;;8.53;46.96
71643;BME280;59438;45.014;39.006;2023-03-30T10:28:50;101466.25;;;8.37;44.50
71643;BME280;59438;45.014;39.006;2023-03-30T10:31:18;101462.78;;;8.35;47.86
71643;BME280;59438;45.014;39.006;2023-03-30T10:33:46;101469.78;;;8.35;48.16
71643;BME280;59438;45.014;39.006;2023-03-30T10:36:14;101472.41;;;8.35;48.88
71643;BME280;59438;45.014;39.006;2023-03-30T10:38:42;101470.50;;;8.46;49.09
71643;BME280;59438;45.014;39.006;2023-03-30T10:41:11;101440.19;;;8.30;48.02
71643;BME280;59438;45.014;39.006;2023-03-30T10:43:38;101458.31;;;8.45;49.46
71643;BME280;59438;45.014;39.006;2023-03-30T10:46:10;101459.16;;;8.47;47.06
71643;BME280;59438;45.014;39.006;2023-03-30T10:48:48;101453.81;;;8.53;44.97
71643;BME280;59438;45.014;39.006;2023-03-30T10:51:25;101442.34;;;8.60;45.77
71643;BME280;59438;45.014;39.006;2023-03-30T10:54:00;101436.88;;;8.73;46.68
71643;BME280;59438;45.014;39.006;2023-03-30T10:56:34;101448.16;;;8.78;43.89
71643;BME280;59438;45.014;39.006;2023-03-30T10:59:33;101450.81;;;8.76;46.27
71643;BME280;59438;45.014;39.006;2023-03-30T11:02:27;101443.97;;;8.67;44.06
71643;BME280;59438;45.014;39.006;2023-03-30T11:04:58;101433.59;;;8.63;45.73
71643;BME280;59438;45.014;39.006;2023-03-30T11:07:30;101439.69;;;8.63;46.18
71643;BME280;59438;45.014;39.006;2023-03-30T11:10:04;101439.63;;;8.66;45.87
71643;BME280;59438;45.014;39.006;2023-03-30T11:12:34;101417.00;;;8.62;46.74
71643;BME280;59438;45.014;39.006;2023-03-30T11:15:06;101424.56;;;8.79;46.17
71643;BME280;59438;45.014;39.006;2023-03-30T11:17:39;101430.56;;;8.86;44.90
71643;BME280;59438;45.014;39.006;2023-03-30T11:20:18;101410.59;;;8.79;43.42
71643;BME280;59438;45.014;39.006;2023-03-30T11:22:48;101403.75;;;8.70;45.89
71643;BME280;59438;45.014;39.006;2023-03-30T11:25:22;101420.13;;;8.83;45.40
71643;BME280;59438;45.014;39.006;2023-03-30T11:27:53;101396.13;;;8.58;44.97
71643;BME280;59438;45.014;39.006;2023-03-30T11:30:22;101428.03;;;8.81;45.38
71643;BME280;59438;45.014;39.006;2023-03-30T11:32:52;101424.69;;;8.73;45.08
71643;BME280;59438;45.014;39.006;2023-03-30T11:35:29;101425.56;;;8.72;44.18
71643;BME280;59438;45.014;39.006;2023-03-30T11:38:01;101434.38;;;8.66;45.79
71643;BME280;59438;45.014;39.006;2023-03-30T11:40:37;101421.44;;;8.59;44.72
71643;BME280;59438;45.014;39.006;2023-03-30T11:43:08;101425.78;;;8.58;46.33
71643;BME280;59438;45.014;39.006;2023-03-30T11:45:55;101420.56;;;8.58;44.37
71643;BME280;59438;45.014;39.006;2023-03-30T11:51:41;101423.94;;;8.65;44.70
71643;BME280;59438;45.014;39.006;2023-03-30T11:54:33;101432.66;;;8.65;44.03
71643;BME280;59438;45.014;39.006;2023-03-30T11:57:03;101427.34;;;8.68;44.96
71643;BME280;59438;45.014;39.006;2023-03-30T11:59:41;101424.06;;;8.57;44.92
71643;BME280;59438;45.014;39.006;2023-03-30T12:02:21;101426.78;;;8.53;44.58
71643;BME280;59438;45.014;39.006;2023-03-30T12:04:56;101427.75;;;8.45;44.98
71643;BME280;59438;45.014;39.006;2023-03-30T12:07:36;101440.94;;;8.41;44.14
71643;BME280;59438;45.014;39.006;2023-03-30T12:10:10;101425.22;;;8.39;45.93
71643;BME280;59438;45.014;39.006;2023-03-30T12:12:40;101426.06;;;8.43;47.37
71643;BME280;59438;45.014;39.006;2023-03-30T12:15:19;101430.28;;;8.50;45.36
71643;BME280;59438;45.014;39.006;2023-03-30T12:17:51;101445.03;;;8.56;46.10
71643;BME280;59438;45.014;39.006;2023-03-30T12:20:32;101423.28;;;8.52;44.72
71643;BME280;59438;45.014;39.006;2023-03-30T12:23:10;101431.97;;;8.54;45.24
71643;BME280;59438;45.014;39.006;2023-03-30T12:25:49;101429.44;;;8.50;44.90
71643;BME280;59438;45.014;39.006;2023-03-30T12:28:22;101415.75;;;8.31;45.25
71643;BME280;59438;45.014;39.006;2023-03-30T12:30:53;101452.25;;;8.43;45.24
71643;BME280;59438;45.014;39.006;2023-03-30T12:33:26;101454.91;;;8.38;44.56
71643;BME280;59438;45.014;39.006;2023-03-30T12:36:00;101421.22;;;8.15;44.64
71643;BME280;59438;45.014;39.006;2023-03-30T12:38:35;101455.03;;;8.31;45.26
71643;BME280;59438;45.014;39.006;2023-03-30T12:41:06;101441.19;;;8.22;46.16
71643;BME280;59438;45.014;39.006;2023-03-30T12:43:36;101448.94;;;8.28;44.33
71643;BME280;59438;45.014;39.006;2023-03-30T12:46:08;101447.34;;;8.20;45.52
71643;BME280;59438;45.014;39.006;2023-03-30T12:48:42;101442.19;;;8.14;46.04
71643;BME280;59438;45.014;39.006;2023-03-30T12:51:18;101437.84;;;8.11;46.54
71643;BME280;59438;45.014;39.006;2023-03-30T12:54:15;101440.47;;;8.11;45.40
71643;BME280;59438;45.014;39.006;2023-03-30T12:56:50;101441.47;;;8.02;45.92
71643;BME280;59438;45.014;39.006;2023-03-30T12:59:40;101449.25;;;8.07;45.24
71643;BME280;59438;45.014;39.006;2023-03-30T13:02:34;101435.38;;;8.03;45.40
71643;BME280;59438;45.014;39.006;2023-03-30T13:05:16;101423.16;;;8.04;45.13
71643;BME280;59438;45.014;39.006;2023-03-30T13:07:43;101431.94;;;8.00;47.44
71643;BME280;59438;45.014;39.006;2023-03-30T13:10:34;101430.19;;;7.99;45.42
71643;BME280;59438;45.014;39.006;2023-03-30T13:13:02;101431.00;;;8.02;46.93
71643;BME280;59438;45.014;39.006;2023-03-30T13:15:38;101430.09;;;8.06;45.38